createdAt,value
2022-08-23T05:37:43.399Z,22.26
2022-08-23T05:40:09.854Z,22.41
2022-08-23T05:42:36.154Z,22.58
2022-08-23T05:45:02.669Z,22.69
2022-08-23T05:47:29.040Z,22.73
2022-08-23T05:49:55.431Z,22.79
2022-08-23T05:52:21.854Z,23.00
2022-08-23T05:54:48.209Z,23.22
2022-08-23T05:57:14.572Z,23.39
2022-08-23T05:59:40.968Z,23.48
2022-08-23T06:02:07.349Z,23.53
2022-08-23T06:04:33.829Z,23.64
2022-08-23T06:07:00.193Z,23.85
2022-08-23T06:09:26.586Z,24.05
2022-08-23T06:11:52.953Z,24.28
2022-08-23T06:14:19.383Z,24.54
2022-08-23T06:16:45.715Z,24.77
2022-08-23T06:19:12.115Z,24.98
2022-08-23T06:21:38.560Z,25.11
2022-08-23T06:24:04.922Z,25.21
2022-08-23T06:26:31.307Z,25.30
2022-08-23T06:28:57.793Z,25.51
2022-08-23T06:31:24.138Z,25.80
2022-08-23T06:33:50.550Z,26.11
2022-08-23T06:36:16.907Z,26.43
2022-08-23T06:38:43.280Z,26.77
2022-08-23T06:41:09.705Z,27.01
2022-08-23T06:43:36.137Z,27.22
2022-08-23T06:46:02.518Z,27.44
2022-08-23T06:48:28.881Z,27.63
2022-08-23T06:50:55.274Z,27.80
2022-08-23T06:53:21.645Z,27.91
2022-08-23T06:55:48.109Z,28.10
2022-08-23T06:58:14.507Z,28.32
2022-08-23T07:00:40.993Z,28.59
2022-08-23T07:03:07.383Z,28.87
2022-08-23T07:05:33.822Z,29.24
2022-08-23T07:08:00.205Z,29.45
2022-08-23T07:10:26.580Z,29.49
2022-08-23T07:12:52.972Z,29.15
2022-08-23T07:15:19.461Z,28.88
2022-08-23T07:17:45.889Z,28.80
2022-08-23T07:20:12.251Z,28.81
2022-08-23T07:22:38.647Z,29.17
2022-08-23T07:25:05.042Z,29.75
2022-08-23T07:27:31.515Z,30.27
2022-08-23T07:29:57.897Z,30.71
2022-08-23T07:32:24.289Z,30.82
2022-08-23T07:34:50.647Z,30.94
2022-08-23T07:37:17.018Z,30.89
2022-08-23T07:39:43.427Z,30.58
2022-08-23T07:42:23.041Z,30.50
2022-08-23T07:44:36.191Z,30.68
2022-08-23T07:47:02.570Z,30.61
2022-08-23T07:49:29.344Z,30.26
2022-08-23T07:51:55.372Z,30.00
2022-08-23T07:54:21.740Z,30.02
2022-08-23T07:56:48.143Z,29.93
2022-08-23T07:59:14.535Z,29.74
2022-08-23T08:01:40.909Z,29.48
2022-08-23T08:04:07.315Z,29.14
2022-08-23T08:06:33.701Z,28.74
2022-08-23T08:09:00.141Z,28.49
2022-08-23T08:11:29.701Z,28.33
2022-08-23T08:13:53.037Z,28.38
2022-08-23T08:16:19.494Z,28.35
2022-08-23T08:18:45.893Z,28.22
2022-08-23T08:21:12.328Z,28.17
2022-08-23T08:23:38.693Z,28.19
2022-08-23T08:26:05.549Z,28.11
2022-08-23T08:28:31.479Z,27.97
2022-08-23T08:30:57.863Z,27.97
2022-08-23T08:33:24.574Z,27.97
2022-08-23T08:35:56.194Z,27.88
2022-08-23T08:38:17.111Z,27.84
2022-08-23T08:40:43.496Z,27.83
2022-08-23T08:43:09.862Z,27.86
2022-08-23T08:45:36.244Z,28.10
2022-08-23T08:48:02.810Z,28.31
2022-08-23T08:50:28.987Z,28.45
2022-08-23T08:52:55.372Z,28.49
2022-08-23T08:55:21.780Z,28.36
2022-08-23T08:57:48.145Z,28.14
2022-08-23T09:00:14.507Z,27.94
2022-08-23T09:02:40.960Z,27.81
2022-08-23T09:05:07.316Z,27.88
2022-08-23T09:07:33.669Z,28.13
2022-08-23T09:10:00.042Z,28.30
2022-08-23T09:12:26.730Z,28.51
2022-08-23T09:14:53.119Z,28.76
2022-08-23T09:17:19.529Z,28.87
2022-08-23T09:19:45.897Z,28.87
2022-08-23T09:22:12.272Z,29.00
2022-08-23T09:24:39.734Z,29.11
2022-08-23T09:27:05.021Z,28.95
2022-08-23T09:29:31.508Z,28.93
2022-08-23T09:31:58.263Z,28.97
2022-08-23T09:34:24.301Z,28.80
2022-08-23T09:36:52.227Z,28.71
2022-08-23T09:39:17.069Z,28.78
2022-08-23T09:41:43.432Z,29.20
2022-08-23T09:44:09.810Z,29.78
2022-08-23T09:46:36.248Z,30.40
2022-08-23T09:49:02.586Z,30.65
2022-08-23T09:51:28.962Z,30.76
2022-08-23T09:53:55.372Z,30.81
2022-08-23T09:56:21.752Z,30.80
2022-08-23T09:58:48.218Z,30.74
2022-08-23T10:01:14.643Z,30.71
2022-08-23T10:03:41.090Z,30.76
2022-08-23T10:06:07.474Z,30.69
2022-08-23T10:08:33.951Z,30.55
2022-08-23T10:11:00.315Z,30.72
2022-08-23T10:13:26.711Z,31.03
2022-08-23T10:15:53.134Z,31.38
2022-08-23T10:18:19.476Z,31.72
2022-08-23T10:23:29.782Z,31.73
2022-08-23T10:25:56.150Z,31.62
2022-08-23T10:28:22.621Z,31.59
2022-08-23T10:30:49.096Z,31.70
2022-08-23T10:33:18.662Z,31.88
2022-08-23T10:35:42.029Z,31.93
2022-08-23T10:38:08.392Z,32.09
2022-08-23T10:40:34.820Z,32.33
2022-08-23T10:43:01.225Z,32.50
2022-08-23T10:45:27.703Z,32.67
2022-08-23T10:47:54.088Z,32.66
2022-08-23T10:50:20.519Z,32.58
2022-08-23T10:52:46.883Z,32.59
2022-08-23T10:55:13.251Z,32.39
2022-08-23T10:57:39.625Z,32.06
2022-08-23T11:00:06.041Z,31.88
2022-08-23T11:02:32.504Z,31.54
2022-08-23T11:04:58.862Z,31.19
2022-08-23T11:07:25.352Z,30.96
2022-08-23T11:09:51.786Z,30.94
2022-08-23T11:12:18.149Z,30.86
2022-08-23T11:14:44.545Z,30.72
2022-08-23T11:17:10.978Z,30.68
2022-08-23T11:19:37.361Z,30.75
2022-08-23T11:22:03.728Z,30.92
2022-08-23T11:24:30.129Z,30.92
2022-08-23T11:26:56.519Z,31.01
2022-08-23T11:29:23.078Z,30.90
2022-08-23T11:31:49.567Z,30.85
2022-08-23T11:34:15.981Z,30.91
2022-08-23T11:36:42.306Z,31.14
2022-08-23T11:39:08.671Z,31.20
2022-08-23T11:41:35.056Z,31.20
2022-08-23T11:44:01.491Z,31.07
2022-08-23T11:46:27.927Z,31.05
2022-08-23T11:48:54.250Z,30.98
2022-08-23T11:51:20.731Z,30.90
2022-08-23T11:53:47.092Z,30.84
2022-08-23T11:56:13.457Z,30.68
2022-08-23T11:58:39.941Z,30.70
2022-08-23T12:01:06.328Z,30.77
2022-08-23T12:03:32.801Z,30.76
2022-08-23T12:05:59.090Z,30.86
2022-08-23T12:08:25.462Z,30.99
2022-08-23T12:10:51.891Z,31.01
2022-08-23T12:13:18.283Z,30.99
2022-08-23T12:15:44.742Z,31.02
2022-08-23T12:18:11.044Z,30.91
2022-08-23T12:20:37.412Z,30.82
2022-08-23T12:23:03.811Z,30.94
2022-08-23T12:25:30.298Z,30.92
2022-08-23T12:27:56.705Z,30.75
2022-08-23T12:30:23.104Z,30.83
2022-08-23T12:32:49.488Z,30.83
2022-08-23T12:35:15.960Z,30.72
2022-08-23T12:37:42.367Z,30.52
2022-08-23T12:40:08.839Z,30.27
2022-08-23T12:42:35.136Z,30.28
2022-08-23T12:45:01.543Z,30.54
2022-08-23T12:47:27.988Z,30.70
2022-08-23T12:49:54.370Z,30.83
2022-08-23T12:52:20.835Z,30.88
2022-08-23T12:54:47.266Z,30.87
2022-08-23T12:57:13.643Z,30.90
2022-08-23T12:59:40.141Z,30.80
2022-08-23T13:02:06.560Z,30.68
2022-08-23T13:04:33.004Z,30.48
2022-08-23T13:06:59.369Z,30.47
2022-08-23T13:09:25.733Z,30.52
2022-08-23T13:11:52.111Z,30.50
2022-08-23T13:14:18.510Z,30.47
2022-08-23T13:16:44.868Z,30.35
2022-08-23T13:19:11.237Z,30.36
2022-08-23T13:21:39.760Z,30.40
2022-08-23T13:24:04.168Z,30.35
2022-08-23T13:26:30.601Z,30.35
2022-08-23T13:28:56.991Z,30.32
2022-08-23T13:31:23.501Z,30.32
2022-08-23T13:33:49.743Z,30.26
2022-08-23T13:36:16.124Z,30.17
2022-08-23T13:38:42.556Z,30.10
2022-08-23T13:41:08.918Z,30.05
2022-08-23T13:43:35.322Z,29.96
2022-08-23T13:46:01.795Z,29.80
2022-08-23T13:48:28.115Z,29.72
2022-08-23T13:50:54.517Z,29.70
2022-08-23T13:53:21.042Z,29.71
2022-08-23T13:55:47.285Z,29.70
2022-08-23T13:58:13.709Z,29.56
2022-08-23T14:00:40.149Z,29.44
2022-08-23T14:03:06.515Z,29.34
2022-08-23T14:05:33.095Z,29.25
2022-08-23T14:07:59.251Z,29.25
2022-08-23T14:10:25.641Z,29.34
2022-08-23T14:12:52.099Z,29.16
2022-08-23T14:15:18.468Z,29.01
2022-08-23T14:17:44.926Z,28.88
2022-08-23T14:22:37.645Z,28.30
2022-08-23T14:25:04.037Z,27.91
2022-08-23T14:27:30.443Z,27.65
2022-08-23T14:29:56.821Z,27.54
2022-08-23T14:32:23.263Z,27.45
2022-08-23T14:34:49.699Z,27.29
2022-08-23T14:39:42.481Z,27.05
2022-08-23T14:42:08.829Z,27.19
2022-08-23T14:44:36.274Z,27.30
2022-08-23T14:47:01.592Z,27.29
2022-08-23T14:49:28.003Z,27.19
2022-08-23T14:51:54.398Z,27.24
2022-08-23T14:54:20.849Z,27.36
2022-08-23T14:56:47.242Z,27.45
2022-08-23T14:59:13.656Z,27.45
2022-08-23T15:01:40.029Z,27.44
2022-08-23T15:04:06.516Z,27.42
2022-08-23T15:06:32.835Z,27.43
2022-08-23T15:08:59.208Z,27.40
2022-08-23T15:13:54.906Z,27.31
2022-08-23T15:16:18.381Z,27.21
2022-08-23T15:18:44.721Z,27.12
2022-08-23T15:21:11.091Z,26.94
2022-08-23T15:23:37.513Z,26.72
2022-08-23T15:26:04.134Z,26.63
2022-08-23T15:28:30.717Z,26.71
2022-08-23T15:30:57.387Z,26.78
2022-08-23T15:33:30.693Z,26.82
2022-08-23T15:35:50.606Z,26.85
2022-08-23T15:38:17.898Z,26.90
2022-08-23T15:40:43.756Z,26.95
2022-08-23T15:43:10.413Z,26.98
2022-08-23T15:45:37.012Z,26.87
2022-08-23T15:48:03.600Z,26.77
2022-08-23T15:50:30.225Z,26.74
2022-08-23T15:52:56.881Z,26.72
2022-08-23T15:55:23.498Z,26.65
2022-08-23T15:57:50.239Z,26.51
2022-08-23T16:00:16.831Z,26.34
2022-08-23T16:03:06.615Z,26.20
2022-08-23T16:05:10.053Z,26.11
2022-08-23T16:07:36.679Z,26.03
2022-08-23T16:10:03.317Z,25.97
2022-08-23T16:12:29.965Z,25.96
2022-08-23T16:14:56.293Z,25.96
2022-08-23T16:17:22.725Z,25.89
2022-08-23T16:19:49.178Z,25.78
2022-08-23T16:22:15.639Z,25.70
2022-08-23T16:24:42.153Z,25.57
2022-08-23T16:27:08.518Z,25.46
2022-08-23T16:29:34.908Z,25.41
2022-08-23T16:32:01.360Z,25.30
2022-08-23T16:34:27.871Z,25.22
2022-08-23T16:36:54.950Z,25.18
2022-08-23T16:39:20.667Z,25.14
2022-08-23T16:41:47.085Z,25.09
2022-08-23T16:44:13.511Z,25.02
2022-08-23T16:46:41.192Z,24.95
2022-08-23T16:49:06.257Z,24.90
2022-08-23T16:51:32.664Z,24.93
2022-08-23T16:54:02.739Z,24.96
2022-08-23T16:56:25.486Z,25.00
2022-08-23T16:58:51.845Z,25.03
2022-08-23T17:01:18.274Z,25.09
2022-08-23T17:03:44.647Z,25.22
2022-08-23T17:06:11.011Z,25.31
2022-08-23T17:08:37.408Z,25.32
2022-08-23T17:11:03.823Z,25.26
2022-08-23T17:13:30.186Z,25.19
2022-08-23T17:15:56.635Z,25.17
2022-08-23T17:18:23.018Z,25.20
2022-08-23T17:20:49.418Z,25.18
2022-08-23T17:23:15.771Z,25.10
2022-08-23T17:25:42.309Z,24.88
2022-08-23T17:28:08.670Z,24.81
2022-08-23T17:30:35.062Z,24.78
2022-08-23T17:33:01.651Z,24.70
2022-08-23T17:35:27.817Z,24.61
2022-08-23T17:37:54.183Z,24.62
2022-08-23T17:40:21.296Z,24.59
2022-08-23T17:42:47.026Z,24.53
2022-08-23T17:45:13.527Z,24.45
2022-08-23T17:47:39.928Z,24.44
2022-08-23T17:50:06.305Z,24.36
2022-08-23T17:52:32.708Z,24.26
2022-08-23T17:54:59.105Z,24.17
2022-08-23T17:57:25.535Z,24.11
2022-08-23T17:59:51.933Z,23.90
2022-08-23T18:02:18.327Z,23.92
2022-08-23T18:04:44.734Z,23.94
2022-08-23T18:07:11.115Z,23.93
2022-08-23T18:09:43.741Z,23.97
2022-08-23T18:12:03.851Z,23.99
2022-08-23T18:14:30.257Z,23.96
2022-08-23T18:16:56.650Z,23.96
2022-08-23T18:19:23.012Z,23.93
2022-08-23T18:21:49.408Z,23.90
2022-08-23T18:24:15.841Z,23.84
2022-08-23T18:26:42.982Z,23.77
2022-08-23T18:29:08.651Z,23.67
2022-08-23T18:31:35.064Z,23.63
2022-08-23T18:34:01.470Z,23.63
2022-08-23T18:36:27.876Z,23.68
2022-08-23T18:38:54.333Z,23.78
2022-08-23T18:41:20.823Z,23.86
2022-08-23T18:43:47.189Z,23.92
2022-08-23T18:46:13.641Z,23.96
2022-08-23T18:48:39.964Z,23.91
2022-08-23T18:51:06.449Z,23.83
2022-08-23T18:53:32.841Z,23.85
2022-08-23T18:55:59.201Z,23.89
2022-08-23T18:58:25.569Z,23.83
2022-08-23T19:00:52.192Z,23.76
2022-08-23T19:03:18.406Z,23.77
2022-08-23T19:05:44.893Z,23.80
2022-08-23T19:08:11.271Z,23.81
2022-08-23T19:10:37.654Z,23.80
2022-08-23T19:13:04.293Z,23.72
2022-08-23T19:15:30.425Z,23.65
2022-08-23T19:17:56.860Z,23.65
2022-08-23T19:20:23.226Z,23.65
2022-08-23T19:22:49.632Z,23.62
2022-08-23T19:25:15.993Z,23.60
2022-08-23T19:27:42.376Z,23.57
2022-08-23T19:30:08.764Z,23.57
2022-08-23T19:32:35.125Z,23.52
2022-08-23T19:35:01.510Z,23.50
2022-08-23T19:37:27.877Z,23.51
2022-08-23T19:39:54.309Z,23.51
2022-08-23T19:42:20.652Z,23.50
2022-08-23T19:44:47.060Z,23.48
2022-08-23T19:47:20.193Z,23.40
2022-08-23T19:49:39.812Z,23.26
2022-08-23T19:52:06.198Z,23.11
2022-08-23T19:54:32.557Z,23.01
2022-08-23T19:56:58.926Z,22.96
2022-08-23T19:59:25.375Z,22.92
2022-08-23T20:01:51.931Z,22.84
2022-08-23T20:04:18.265Z,22.76
2022-08-23T20:06:44.694Z,22.70
2022-08-23T20:09:11.056Z,22.63
2022-08-23T20:11:37.462Z,22.58
2022-08-23T20:14:05.287Z,22.55
2022-08-23T20:16:30.310Z,22.59
2022-08-23T20:18:56.628Z,22.59
2022-08-23T20:21:23.573Z,22.58
2022-08-23T20:23:49.463Z,22.59
2022-08-23T20:26:15.829Z,22.63
2022-08-23T20:28:59.133Z,22.65
2022-08-23T20:31:08.781Z,22.65
2022-08-23T20:33:35.126Z,22.63
2022-08-23T20:36:01.525Z,22.63
2022-08-23T20:38:33.802Z,22.66
2022-08-23T20:40:54.329Z,22.75
2022-08-23T20:43:20.733Z,22.78
2022-08-23T20:45:47.737Z,22.81
2022-08-23T20:48:13.471Z,22.81
2022-08-23T20:50:39.978Z,22.81
2022-08-23T20:53:06.411Z,22.81
2022-08-23T20:55:32.847Z,22.81
2022-08-23T20:57:59.235Z,22.80
2022-08-23T21:00:25.701Z,22.79
2022-08-23T21:02:51.983Z,22.76
2022-08-23T21:05:18.356Z,22.77
2022-08-23T21:07:44.720Z,22.71
2022-08-23T21:10:11.137Z,22.71
2022-08-23T21:12:37.570Z,22.72
2022-08-23T21:15:05.949Z,22.72
2022-08-23T21:17:30.427Z,22.70
2022-08-23T21:19:56.798Z,22.72
2022-08-23T21:22:23.201Z,22.73
2022-08-23T21:24:49.631Z,22.73
2022-08-23T21:27:15.997Z,22.72
2022-08-23T21:29:42.380Z,22.70
2022-08-23T21:32:08.768Z,22.66
2022-08-23T21:34:35.171Z,22.59
2022-08-23T21:37:01.592Z,22.55
2022-08-23T21:39:28.026Z,22.53
2022-08-23T21:41:54.441Z,22.50
2022-08-23T21:44:20.811Z,22.46
2022-08-23T21:46:47.194Z,22.39
2022-08-23T21:49:13.580Z,22.32
2022-08-23T21:51:39.944Z,22.32
2022-08-23T21:54:06.347Z,22.31
2022-08-23T21:56:32.745Z,22.32
2022-08-23T21:58:59.186Z,22.34
2022-08-23T22:01:25.585Z,22.34
2022-08-23T22:03:56.661Z,22.33
2022-08-23T22:06:18.330Z,22.29
2022-08-23T22:08:44.727Z,22.24
2022-08-23T22:11:11.104Z,22.23
2022-08-23T22:13:37.493Z,22.04
2022-08-23T22:16:03.927Z,21.85
2022-08-23T22:18:30.283Z,21.57
2022-08-23T22:20:56.664Z,21.59
2022-08-23T22:23:23.106Z,21.62
2022-08-23T22:25:49.535Z,21.72
2022-08-23T22:28:15.910Z,21.72
2022-08-23T22:30:42.409Z,21.66
2022-08-23T22:33:08.733Z,21.63
2022-08-23T22:35:35.121Z,21.65
2022-08-23T22:38:13.729Z,21.69
2022-08-23T22:40:27.923Z,21.71
2022-08-23T22:42:54.236Z,21.71
2022-08-23T22:45:20.601Z,21.73
2022-08-23T22:47:47.019Z,21.75
2022-08-23T22:50:13.459Z,21.73
2022-08-23T22:52:39.830Z,21.67
2022-08-23T22:55:06.218Z,21.60
2022-08-23T22:57:32.598Z,21.58
2022-08-23T22:59:58.964Z,21.63
2022-08-23T23:02:25.350Z,21.65
2022-08-23T23:04:51.749Z,21.65
2022-08-23T23:07:18.115Z,21.60
2022-08-23T23:09:44.530Z,21.56
2022-08-23T23:12:10.946Z,21.52
2022-08-23T23:14:37.385Z,21.54
2022-08-23T23:17:03.931Z,21.56
2022-08-23T23:19:30.177Z,21.61
2022-08-23T23:21:56.543Z,21.62
2022-08-23T23:24:22.927Z,21.62
2022-08-23T23:26:49.295Z,21.66
2022-08-23T23:29:15.661Z,21.70
2022-08-23T23:31:42.067Z,21.68
2022-08-23T23:34:08.537Z,21.65
2022-08-23T23:36:34.903Z,21.65
2022-08-23T23:39:01.401Z,21.63
2022-08-23T23:41:27.843Z,21.60
2022-08-23T23:43:54.266Z,21.57
2022-08-23T23:46:20.709Z,21.53
2022-08-23T23:48:47.134Z,21.51
2022-08-23T23:51:13.523Z,21.53
2022-08-23T23:53:39.916Z,21.60
2022-08-23T23:56:06.294Z,21.64
2022-08-23T23:58:32.652Z,21.65
